createdAt,value
2018-09-21T00:01:26.505Z,4.67
2018-09-21T00:04:00.069Z,4.30
2018-09-21T00:06:28.611Z,4.27
2018-09-21T00:08:56.946Z,4.30
2018-09-21T00:11:25.480Z,4.67
2018-09-21T00:13:53.855Z,4.90
2018-09-21T00:16:23.208Z,4.73
2018-09-21T00:18:52.010Z,4.60
2018-09-21T00:21:20.403Z,4.57
2018-09-21T00:23:49.246Z,4.53
2018-09-21T00:26:17.584Z,4.70
2018-09-21T00:28:46.956Z,4.50
2018-09-21T00:31:15.231Z,4.63
2018-09-21T00:33:43.596Z,4.60
2018-09-21T00:36:11.901Z,4.57
2018-09-21T00:38:40.430Z,4.80
2018-09-21T00:41:08.828Z,4.63
2018-09-21T00:43:37.188Z,4.50
2018-09-21T00:46:05.688Z,4.77
2018-09-21T00:48:36.151Z,5.13
2018-09-21T00:51:04.586Z,4.90
2018-09-21T00:53:33.521Z,4.77
2018-09-21T00:56:02.291Z,4.90
2018-09-21T00:58:30.317Z,5.10
2018-09-21T01:00:59.106Z,5.13
2018-09-21T01:03:28.884Z,5.10
2018-09-21T01:05:57.190Z,4.90
2018-09-21T01:08:26.173Z,5.07
2018-09-21T01:10:54.779Z,4.97
2018-09-21T01:13:23.561Z,4.50
2018-09-21T01:15:52.158Z,4.33
2018-09-21T01:18:20.268Z,5.93
2018-09-21T01:20:48.844Z,5.00
2018-09-21T01:23:17.290Z,5.33
2018-09-21T01:25:45.753Z,5.80
2018-09-21T01:28:13.940Z,5.50
2018-09-21T01:30:42.471Z,5.43
2018-09-21T01:33:11.081Z,5.63
2018-09-21T01:35:40.058Z,5.80
2018-09-21T01:38:08.455Z,5.40
2018-09-21T01:40:36.748Z,5.47
2018-09-21T01:43:05.273Z,5.20
2018-09-21T01:45:33.849Z,5.40
2018-09-21T01:48:02.333Z,5.43
2018-09-21T01:50:30.719Z,5.50
2018-09-21T01:52:58.805Z,5.87
2018-09-21T01:55:26.978Z,5.57
2018-09-21T01:57:55.062Z,6.20
2018-09-21T02:00:23.038Z,5.67
2018-09-21T02:02:52.282Z,5.50
2018-09-21T02:05:20.340Z,5.37
2018-09-21T02:07:48.295Z,4.60
2018-09-21T02:10:16.669Z,4.73
2018-09-21T02:12:44.876Z,4.90
2018-09-21T02:15:12.955Z,4.80
2018-09-21T02:17:40.851Z,4.93
2018-09-21T02:20:08.786Z,4.40
2018-09-21T02:22:37.015Z,4.53
2018-09-21T02:25:05.008Z,4.43
2018-09-21T02:27:33.149Z,5.20
2018-09-21T02:30:01.111Z,4.17
2018-09-21T02:32:29.708Z,4.30
2018-09-21T02:34:57.756Z,4.20
2018-09-21T02:37:25.776Z,4.70
2018-09-21T02:39:54.047Z,4.10
2018-09-21T02:42:22.359Z,4.90
2018-09-21T02:44:51.030Z,4.90
2018-09-21T02:47:19.186Z,4.63
2018-09-21T02:49:47.266Z,5.10
2018-09-21T02:52:15.738Z,4.60
2018-09-21T02:54:43.896Z,4.63
2018-09-21T02:57:11.988Z,4.43
2018-09-21T02:59:40.095Z,4.00
2018-09-21T03:02:07.987Z,4.83
2018-09-21T03:04:40.457Z,4.73
2018-09-21T03:07:08.530Z,4.80
2018-09-21T03:09:36.634Z,5.07
2018-09-21T03:12:04.477Z,5.37
2018-09-21T03:14:32.688Z,4.93
2018-09-21T03:17:00.480Z,4.80
2018-09-21T03:19:28.475Z,4.83
2018-09-21T03:21:56.357Z,5.00
2018-09-21T03:24:24.438Z,4.90
2018-09-21T03:26:52.589Z,4.90
2018-09-21T03:29:20.471Z,4.87
2018-09-21T03:31:48.452Z,5.30
2018-09-21T03:34:16.442Z,4.93
2018-09-21T03:36:44.335Z,5.37
2018-09-21T03:39:12.094Z,5.23
2018-09-21T03:41:39.942Z,4.63
2018-09-21T03:44:07.736Z,5.83
2018-09-21T03:46:36.318Z,4.80
2018-09-21T03:49:04.179Z,4.70
2018-09-21T03:51:32.154Z,5.40
2018-09-21T03:54:00.013Z,5.13
2018-09-21T03:56:27.915Z,5.10
2018-09-21T03:58:55.790Z,4.90
2018-09-21T04:01:23.881Z,5.50
2018-09-21T04:03:52.110Z,5.80
2018-09-21T04:06:19.977Z,6.30
2018-09-21T04:08:47.863Z,5.10
2018-09-21T04:11:15.773Z,5.03
2018-09-21T04:13:43.818Z,5.50
2018-09-21T04:16:12.154Z,5.30
2018-09-21T04:18:39.965Z,5.53
2018-09-21T04:21:08.282Z,5.40
2018-09-21T04:23:36.084Z,4.97
2018-09-21T04:26:04.201Z,5.50
2018-09-21T04:28:32.000Z,5.30
2018-09-21T04:30:59.911Z,5.30
2018-09-21T04:33:27.830Z,4.93
2018-09-21T04:35:55.737Z,5.50
2018-09-21T04:38:23.521Z,4.93
2018-09-21T04:40:51.373Z,5.40
2018-09-21T04:43:19.221Z,6.73
2018-09-21T04:45:47.339Z,5.70
2018-09-21T04:48:15.470Z,5.60
2018-09-21T04:50:43.522Z,5.80
2018-09-21T04:53:11.769Z,5.10
2018-09-21T04:55:39.763Z,5.30
2018-09-21T04:58:07.652Z,5.97
2018-09-21T05:00:35.700Z,5.40
2018-09-21T05:03:03.527Z,5.97
2018-09-21T05:05:31.335Z,5.10
2018-09-21T05:08:01.594Z,5.97
2018-09-21T05:10:29.584Z,5.70
2018-09-21T05:12:57.581Z,5.43
2018-09-21T05:15:25.544Z,5.80
2018-09-21T05:17:53.953Z,6.23
2018-09-21T05:20:22.203Z,5.90
2018-09-21T05:22:52.447Z,5.80
2018-09-21T05:25:20.687Z,5.20
2018-09-21T05:27:48.727Z,5.40
2018-09-21T05:30:16.714Z,4.93
2018-09-21T05:32:45.275Z,5.63
2018-09-21T05:35:13.408Z,5.30
2018-09-21T05:37:41.833Z,5.00
2018-09-21T05:40:09.799Z,5.00
2018-09-21T05:42:38.135Z,5.77
2018-09-21T05:45:06.662Z,5.20
2018-09-21T05:47:35.109Z,5.10
2018-09-21T05:50:03.314Z,5.00
2018-09-21T05:52:31.972Z,5.53
2018-09-21T05:55:00.070Z,6.13
2018-09-21T05:57:28.138Z,5.23
2018-09-21T05:59:56.294Z,5.23
2018-09-21T06:02:25.023Z,5.27
2018-09-21T06:04:58.587Z,4.90
2018-09-21T06:07:26.410Z,5.30
2018-09-21T06:09:54.698Z,5.17
2018-09-21T06:12:22.665Z,5.30
2018-09-21T06:14:51.317Z,5.00
2018-09-21T06:17:19.282Z,4.80
2018-09-21T06:19:47.215Z,5.20
2018-09-21T06:22:15.033Z,5.17
2018-09-21T06:24:43.004Z,5.10
2018-09-21T06:27:11.248Z,5.13
2018-09-21T06:29:39.638Z,4.33
2018-09-21T06:32:07.616Z,4.90
2018-09-21T06:34:37.342Z,5.60
2018-09-21T06:37:05.093Z,4.90
2018-09-21T06:39:33.477Z,5.07
2018-09-21T06:42:01.564Z,5.03
2018-09-21T06:44:29.609Z,5.13
2018-09-21T06:46:57.409Z,4.80
2018-09-21T06:49:25.421Z,4.87
2018-09-21T06:51:53.470Z,4.67
2018-09-21T06:54:22.234Z,5.53
2018-09-21T06:56:50.297Z,4.70
2018-09-21T06:59:18.190Z,5.17
2018-09-21T07:01:46.297Z,4.97
2018-09-21T07:04:14.051Z,5.13
2018-09-21T07:06:42.435Z,5.17
2018-09-21T07:09:12.714Z,5.50
2018-09-21T07:11:41.700Z,5.20
2018-09-21T07:14:11.966Z,5.10
2018-09-21T07:16:40.863Z,4.83
2018-09-21T07:19:09.270Z,5.17
2018-09-21T07:21:37.726Z,4.80
2018-09-21T07:24:06.255Z,4.93
2018-09-21T07:26:35.811Z,4.90
2018-09-21T07:29:04.301Z,4.73
2018-09-21T07:31:33.113Z,4.80
2018-09-21T07:34:01.196Z,5.00
2018-09-21T07:36:30.515Z,5.10
2018-09-21T07:38:58.774Z,4.90
2018-09-21T07:41:27.349Z,5.30
2018-09-21T07:43:55.668Z,4.70
2018-09-21T07:46:24.150Z,5.53
2018-09-21T07:48:52.879Z,5.17
2018-09-21T07:51:21.128Z,4.80
2018-09-21T07:53:49.359Z,5.00
2018-09-21T07:56:17.543Z,4.97
2018-09-21T07:58:45.579Z,4.50
2018-09-21T08:01:14.927Z,5.07
2018-09-21T08:03:42.753Z,4.90
2018-09-21T08:06:11.586Z,4.83
2018-09-21T08:08:39.556Z,4.87
2018-09-21T08:11:07.672Z,4.90
2018-09-21T08:13:36.495Z,4.73
2018-09-21T08:16:04.568Z,4.43
2018-09-21T08:18:32.570Z,4.97
2018-09-21T08:21:00.842Z,5.07
2018-09-21T08:23:29.098Z,4.80
2018-09-21T08:25:57.617Z,5.30
2018-09-21T08:28:25.929Z,5.73
2018-09-21T08:30:54.052Z,5.30
2018-09-21T08:33:22.581Z,5.97
2018-09-21T08:35:50.489Z,4.87
2018-09-21T08:38:18.472Z,5.07
2018-09-21T08:40:46.713Z,5.47
2018-09-21T08:43:15.544Z,5.33
2018-09-21T08:45:43.633Z,5.70
2018-09-21T08:48:11.819Z,5.37
2018-09-21T08:50:39.845Z,5.23
2018-09-21T08:53:08.151Z,5.23
2018-09-21T08:55:36.853Z,5.60
2018-09-21T08:58:04.842Z,5.40
2018-09-21T09:00:32.696Z,5.60
2018-09-21T09:03:00.635Z,5.37
2018-09-21T09:05:28.682Z,5.13
2018-09-21T09:07:56.782Z,4.83
2018-09-21T09:10:25.038Z,5.33
2018-09-21T09:12:53.170Z,5.00
2018-09-21T09:15:21.112Z,5.00
2018-09-21T09:17:49.055Z,4.80
2018-09-21T09:20:16.927Z,4.93
2018-09-21T09:22:45.432Z,5.47
2018-09-21T09:25:13.624Z,5.50
2018-09-21T09:27:41.990Z,4.93
2018-09-21T09:30:10.128Z,4.83
2018-09-21T09:32:38.548Z,5.43
2018-09-21T09:35:06.400Z,5.40
2018-09-21T09:37:34.388Z,5.60
2018-09-21T09:40:08.897Z,5.40
2018-09-21T09:42:36.995Z,5.77
2018-09-21T09:45:05.386Z,5.20
2018-09-21T09:47:33.302Z,5.00
2018-09-21T09:50:01.400Z,5.60
2018-09-21T09:52:30.296Z,5.67
2018-09-21T09:54:58.206Z,5.97
2018-09-21T09:57:26.341Z,5.40
2018-09-21T09:59:54.254Z,5.63
2018-09-21T10:02:22.490Z,5.43
2018-09-21T10:04:50.972Z,5.60
2018-09-21T10:07:18.996Z,5.80
2018-09-21T10:09:47.686Z,5.50
2018-09-21T10:12:16.546Z,6.10
2018-09-21T10:14:45.716Z,5.27
2018-09-21T10:17:13.620Z,5.93
2018-09-21T10:19:42.155Z,5.83
2018-09-21T10:22:10.470Z,6.37
2018-09-21T10:24:39.305Z,5.90
2018-09-21T10:27:07.392Z,5.23
2018-09-21T10:29:35.560Z,5.23
2018-09-21T10:32:04.235Z,6.00
2018-09-21T10:34:34.316Z,5.57
2018-09-21T10:37:02.409Z,5.27
2018-09-21T10:39:30.454Z,5.87
2018-09-21T10:41:59.682Z,5.67
2018-09-21T10:44:27.927Z,6.37
2018-09-21T10:46:56.070Z,6.07
2018-09-21T10:49:24.207Z,5.90
2018-09-21T10:51:52.274Z,6.20
2018-09-21T10:54:20.320Z,6.00
2018-09-21T10:56:49.759Z,6.20
2018-09-21T10:59:18.114Z,6.27
2018-09-21T11:01:46.331Z,5.70
2018-09-21T11:04:14.337Z,6.50
2018-09-21T11:06:42.361Z,5.50
2018-09-21T11:09:11.162Z,6.10
2018-09-21T11:11:39.771Z,6.20
2018-09-21T11:14:07.812Z,6.43
2018-09-21T11:16:37.107Z,6.00
2018-09-21T11:19:05.361Z,5.93
2018-09-21T11:21:33.527Z,6.00
2018-09-21T11:24:02.940Z,5.50
2018-09-21T11:26:30.819Z,5.13
2018-09-21T11:28:58.818Z,5.60
2018-09-21T11:31:26.952Z,5.30
2018-09-21T11:33:55.086Z,5.50
2018-09-21T11:36:23.630Z,4.90
2018-09-21T11:38:51.774Z,5.70
2018-09-21T11:41:19.922Z,5.47
2018-09-21T11:43:48.153Z,5.40
2018-09-21T11:46:16.671Z,5.53
2018-09-21T11:48:44.735Z,4.80
2018-09-21T11:51:13.571Z,5.30
2018-09-21T11:53:41.434Z,4.73
2018-09-21T11:56:10.321Z,4.70
2018-09-21T11:58:38.528Z,5.07
2018-09-21T12:01:06.634Z,5.23
2018-09-21T12:03:35.260Z,4.00
2018-09-21T12:06:05.853Z,4.40
2018-09-21T12:08:35.591Z,4.73
2018-09-21T12:11:03.691Z,4.90
2018-09-21T12:13:32.636Z,4.90
2018-09-21T12:16:00.593Z,4.70
2018-09-21T12:18:28.932Z,5.60
2018-09-21T12:20:57.152Z,5.00
2018-09-21T12:23:25.136Z,4.10
2018-09-21T12:25:53.415Z,4.30
2018-09-21T12:28:22.106Z,4.20
2018-09-21T12:30:50.488Z,4.73
2018-09-21T12:33:18.451Z,3.73
2018-09-21T12:35:46.878Z,4.00
2018-09-21T12:38:15.128Z,4.80
2018-09-21T12:40:43.230Z,4.13
2018-09-21T12:43:11.096Z,4.20
2018-09-21T12:45:39.485Z,4.00
2018-09-21T12:48:07.792Z,4.27
2018-09-21T12:50:36.088Z,3.60
2018-09-21T12:53:04.088Z,3.40
2018-09-21T12:55:31.995Z,3.40
2018-09-21T12:57:59.891Z,3.73
2018-09-21T13:00:32.165Z,3.77
2018-09-21T13:03:00.260Z,3.90
2018-09-21T13:05:28.468Z,3.47
2018-09-21T13:07:56.635Z,4.07
2018-09-21T13:10:24.828Z,3.93
2018-09-21T13:12:52.885Z,4.30
2018-09-21T13:15:21.668Z,3.00
2018-09-21T13:17:49.916Z,3.60
2018-09-21T13:20:17.847Z,3.40
2018-09-21T13:22:47.430Z,3.30
2018-09-21T13:25:15.930Z,3.70
2018-09-21T13:27:44.084Z,2.97
2018-09-21T13:30:12.267Z,3.37
2018-09-21T13:32:40.560Z,3.67
2018-09-21T13:35:08.712Z,3.53
2018-09-21T13:37:37.094Z,3.50
2018-09-21T13:40:05.324Z,3.83
2018-09-21T13:42:34.230Z,3.30
2018-09-21T13:45:02.773Z,3.60
2018-09-21T13:47:31.433Z,3.13
2018-09-21T13:49:59.523Z,3.53
2018-09-21T13:52:27.586Z,3.80
2018-09-21T13:54:55.580Z,3.53
2018-09-21T13:57:23.836Z,3.00
2018-09-21T13:59:51.950Z,3.20
2018-09-21T14:02:20.093Z,3.63
2018-09-21T14:04:47.973Z,3.20
2018-09-21T14:07:16.853Z,3.30
2018-09-21T14:09:44.812Z,3.00
2018-09-21T14:12:12.811Z,3.30
2018-09-21T14:14:41.311Z,3.73
2018-09-21T14:17:09.280Z,3.57
2018-09-21T14:19:37.727Z,3.77
2018-09-21T14:22:06.322Z,4.43
2018-09-21T14:24:34.073Z,3.93
2018-09-21T14:27:02.713Z,4.93
2018-09-21T14:29:30.760Z,4.40
2018-09-21T14:31:59.295Z,3.43
2018-09-21T14:34:27.522Z,3.60
2018-09-21T14:36:55.818Z,3.73
2018-09-21T14:39:23.985Z,3.63
2018-09-21T14:41:52.190Z,3.00
2018-09-21T14:44:20.124Z,3.70
2018-09-21T14:46:48.380Z,3.30
2018-09-21T14:49:17.618Z,6.27
2018-09-21T14:51:46.198Z,6.67
2018-09-21T14:54:14.202Z,4.23
2018-09-21T14:56:42.588Z,3.17
2018-09-21T14:59:10.749Z,3.80
2018-09-21T15:01:38.928Z,2.80
2018-09-21T15:04:07.258Z,0.90
2018-09-21T15:06:36.592Z,0.87
2018-09-21T15:09:07.102Z,0.80
2018-09-21T15:11:35.911Z,0.80
2018-09-21T15:14:05.527Z,0.40
2018-09-21T15:16:34.987Z,0.40
2018-09-21T15:19:02.960Z,0.60
2018-09-21T15:21:31.982Z,0.43
2018-09-21T15:24:01.968Z,0.50
2018-09-21T15:26:30.482Z,0.40
2018-09-21T15:28:58.454Z,1.37
2018-09-21T15:31:26.549Z,1.67
2018-09-21T15:33:55.575Z,1.00
2018-09-21T15:36:24.114Z,1.23
2018-09-21T15:38:52.198Z,1.00
2018-09-21T15:41:21.213Z,1.30
2018-09-21T15:43:49.025Z,1.03
2018-09-21T15:46:17.482Z,0.83
2018-09-21T15:48:45.861Z,0.90
2018-09-21T15:51:14.051Z,1.43
2018-09-21T15:53:42.272Z,1.57
2018-09-21T15:56:10.961Z,1.53
2018-09-21T15:58:39.485Z,1.80
2018-09-21T16:01:07.589Z,0.73
2018-09-21T16:03:36.456Z,0.90
2018-09-21T16:06:05.644Z,0.97
2018-09-21T16:08:34.355Z,1.33
2018-09-21T16:11:03.121Z,3.03
2018-09-21T16:13:31.250Z,1.30
2018-09-21T16:15:59.808Z,1.13
2018-09-21T16:18:28.583Z,1.67
2018-09-21T16:20:56.574Z,1.20
2018-09-21T16:23:24.443Z,1.47
2018-09-21T16:25:55.373Z,1.60
2018-09-21T16:28:23.751Z,1.70
2018-09-21T16:30:51.926Z,1.20
2018-09-21T16:33:20.670Z,1.70
2018-09-21T16:35:49.501Z,2.57
2018-09-21T16:38:18.216Z,1.43
2018-09-21T16:40:46.311Z,1.50
2018-09-21T16:43:14.323Z,1.73
2018-09-21T16:45:42.359Z,4.30
2018-09-21T16:48:10.593Z,5.63
2018-09-21T16:50:38.755Z,2.70
2018-09-21T16:53:06.772Z,1.63
2018-09-21T16:55:34.888Z,1.47
2018-09-21T16:58:03.321Z,1.07
2018-09-21T17:00:31.330Z,1.50
2018-09-21T17:02:59.888Z,1.10
2018-09-21T17:05:28.399Z,1.07
2018-09-21T17:07:56.929Z,1.10
2018-09-21T17:10:24.896Z,1.20
2018-09-21T17:12:53.479Z,1.33
2018-09-21T17:15:22.262Z,1.17
2018-09-21T17:17:50.456Z,1.07
2018-09-21T17:20:18.558Z,1.30
2018-09-21T17:22:47.302Z,1.23
2018-09-21T17:25:15.495Z,1.33
2018-09-21T17:27:43.978Z,1.50
2018-09-21T17:30:12.062Z,1.40
2018-09-21T17:32:40.534Z,1.63
2018-09-21T17:35:09.012Z,1.70
2018-09-21T17:37:37.346Z,2.00
2018-09-21T17:40:05.993Z,1.30
2018-09-21T17:42:36.255Z,1.77
2018-09-21T17:45:05.518Z,1.27
2018-09-21T17:47:33.557Z,2.10
2018-09-21T17:50:02.457Z,1.07
2018-09-21T17:52:31.127Z,1.67
2018-09-21T17:54:59.324Z,1.33
2018-09-21T17:57:27.238Z,1.83
2018-09-21T17:59:55.394Z,1.63
2018-09-21T18:02:23.847Z,1.93
2018-09-21T18:04:52.186Z,1.60
2018-09-21T18:07:21.363Z,1.80
2018-09-21T18:09:52.254Z,4.87
2018-09-21T18:12:20.453Z,11.47
2018-09-21T18:14:49.983Z,10.27
2018-09-21T18:17:18.055Z,23.90
2018-09-21T18:19:46.328Z,11.20
2018-09-21T18:22:14.339Z,3.67
2018-09-21T18:24:42.504Z,3.57
2018-09-21T18:27:10.936Z,1.90
2018-09-21T18:29:39.319Z,2.23
2018-09-21T18:32:07.576Z,2.50
2018-09-21T18:34:35.985Z,2.53
2018-09-21T18:37:04.261Z,2.70
2018-09-21T18:39:32.451Z,5.70
2018-09-21T18:42:00.973Z,7.80
2018-09-21T18:44:29.514Z,5.87
2018-09-21T18:46:57.917Z,5.40
2018-09-21T18:49:26.962Z,5.50
2018-09-21T18:51:56.536Z,5.73
2018-09-21T18:54:26.758Z,4.40
2018-09-21T18:56:55.111Z,2.83
2018-09-21T18:59:23.254Z,3.17
2018-09-21T19:01:53.052Z,3.03
2018-09-21T19:04:21.208Z,3.83
2018-09-21T19:06:49.522Z,2.20
2018-09-21T19:09:18.112Z,2.50
2018-09-21T19:11:46.934Z,2.20
2018-09-21T19:14:16.265Z,2.10
2018-09-21T19:16:44.332Z,2.20
2018-09-21T19:19:12.884Z,1.90
2018-09-21T19:21:42.100Z,1.80
2018-09-21T19:24:11.699Z,1.80
2018-09-21T19:26:40.954Z,1.97
2018-09-21T19:29:09.517Z,1.40
2018-09-21T19:31:38.454Z,1.83
2018-09-21T19:34:07.250Z,1.50
2018-09-21T19:36:36.530Z,1.80
2018-09-21T19:39:09.582Z,1.43
2018-09-21T19:41:38.493Z,1.40
2018-09-21T19:44:07.539Z,1.20
2018-09-21T19:46:36.660Z,1.60
2018-09-21T19:49:05.651Z,1.43
2018-09-21T19:51:34.761Z,1.70
2018-09-21T19:54:03.120Z,1.60
2018-09-21T19:56:33.261Z,1.13
2018-09-21T19:59:02.203Z,1.20
2018-09-21T20:01:31.663Z,1.40
2018-09-21T20:04:00.819Z,1.50
2018-09-21T20:06:29.405Z,1.20
2018-09-21T20:08:57.715Z,1.17
2018-09-21T20:11:25.968Z,1.00
2018-09-21T20:13:54.959Z,0.90
2018-09-21T20:16:22.942Z,1.10
2018-09-21T20:18:52.178Z,1.27
2018-09-21T20:21:20.846Z,0.93
2018-09-21T20:23:49.565Z,1.00
2018-09-21T20:26:18.433Z,1.10
2018-09-21T20:28:47.056Z,1.00
2018-09-21T20:31:21.153Z,0.80
2018-09-21T20:33:49.231Z,0.87
2018-09-21T20:36:17.690Z,1.07
2018-09-21T20:38:46.230Z,1.07
2018-09-21T20:41:14.652Z,1.00
2018-09-21T20:43:43.574Z,0.50
2018-09-21T20:46:12.742Z,0.77
2018-09-21T20:48:42.253Z,0.80
2018-09-21T20:51:10.435Z,0.50
2018-09-21T20:53:38.342Z,0.70
2018-09-21T20:56:06.634Z,0.93
2018-09-21T20:58:35.019Z,0.77
2018-09-21T21:01:03.080Z,0.93
2018-09-21T21:03:31.383Z,1.07
2018-09-21T21:05:59.597Z,0.97
2018-09-21T21:08:27.680Z,0.57
2018-09-21T21:10:55.633Z,0.60
2018-09-21T21:13:25.024Z,0.63
2018-09-21T21:15:53.828Z,1.33
2018-09-21T21:18:22.177Z,0.87
2018-09-21T21:20:50.147Z,0.70
2018-09-21T21:23:18.229Z,0.80
2018-09-21T21:25:46.455Z,0.93
2018-09-21T21:28:14.462Z,0.63
2018-09-21T21:30:42.518Z,0.63
2018-09-21T21:33:10.481Z,0.60
2018-09-21T21:35:38.827Z,0.67
2018-09-21T21:38:07.145Z,0.80
2018-09-21T21:40:35.586Z,0.87
2018-09-21T21:43:03.937Z,0.60
2018-09-21T21:45:32.731Z,0.70
2018-09-21T21:48:00.802Z,0.70
2018-09-21T21:50:29.410Z,0.40
2018-09-21T21:52:57.701Z,0.80
2018-09-21T21:55:26.752Z,0.90
2018-09-21T21:57:55.040Z,0.70
2018-09-21T22:00:23.577Z,0.63
2018-09-21T22:02:52.113Z,0.70
2018-09-21T22:05:20.135Z,0.90
2018-09-21T22:07:48.899Z,0.50
2018-09-21T22:10:16.901Z,0.60
2018-09-21T22:13:49.584Z,0.70
2018-09-21T22:16:17.560Z,0.53
2018-09-21T22:18:45.856Z,0.60
2018-09-21T22:21:14.000Z,0.63
2018-09-21T22:23:42.205Z,0.80
2018-09-21T22:26:10.201Z,0.90
2018-09-21T22:28:38.222Z,1.00
2018-09-21T22:31:06.571Z,0.53
2018-09-21T22:33:34.681Z,0.70
2018-09-21T22:36:03.830Z,1.00
2018-09-21T22:38:32.014Z,0.60
2018-09-21T22:40:59.878Z,0.53
2018-09-21T22:43:27.839Z,0.83
2018-09-21T22:45:55.682Z,0.60
2018-09-21T22:48:23.839Z,0.50
2018-09-21T22:50:52.470Z,0.90
2018-09-21T22:53:20.402Z,0.77
2018-09-21T22:55:48.452Z,0.60
2018-09-21T22:58:16.811Z,0.73
2018-09-21T23:00:45.178Z,0.80
2018-09-21T23:03:13.326Z,0.60
2018-09-21T23:05:41.873Z,0.77
2018-09-21T23:08:10.185Z,0.77
2018-09-21T23:10:38.822Z,0.60
2018-09-21T23:13:07.247Z,0.93
2018-09-21T23:15:36.717Z,0.83
2018-09-21T23:18:04.710Z,0.80
2018-09-21T23:20:32.582Z,0.73
2018-09-21T23:23:01.463Z,0.67
2018-09-21T23:25:29.949Z,0.90
2018-09-21T23:27:58.074Z,0.80
2018-09-21T23:30:26.588Z,0.87
2018-09-21T23:32:55.524Z,0.87
2018-09-21T23:35:23.582Z,0.80
2018-09-21T23:37:52.279Z,0.80
2018-09-21T23:40:20.194Z,0.57
2018-09-21T23:42:48.998Z,0.50
2018-09-21T23:45:17.426Z,0.73
2018-09-21T23:47:46.274Z,0.50
2018-09-21T23:50:14.483Z,0.83
2018-09-21T23:52:43.076Z,1.30
2018-09-21T23:55:11.611Z,0.83
2018-09-21T23:57:39.841Z,0.57
